createdAt,value
2022-08-10T01:56:34.869Z,10.90
2022-08-10T01:57:32.791Z,11.50
2022-08-10T01:58:32.552Z,12.60
2022-08-10T01:59:32.545Z,13.60
2022-08-10T02:00:32.721Z,10.80
2022-08-10T02:01:32.851Z,12.30
2022-08-10T02:02:32.619Z,12.10
2022-08-10T02:03:32.551Z,13.10
2022-08-10T02:04:32.794Z,13.20
2022-08-10T02:05:32.445Z,8.80
2022-08-10T02:06:32.543Z,14.40
2022-08-10T02:07:32.621Z,10.10
2022-08-10T02:08:32.495Z,12.40
2022-08-10T02:09:32.553Z,13.70
2022-08-10T02:10:32.413Z,12.60
2022-08-10T02:12:06.036Z,11.80
2022-08-10T02:12:33.579Z,12.80
2022-08-10T02:13:32.383Z,11.10
2022-08-10T04:46:55.654Z,17.30
2022-08-10T04:52:58.644Z,17.00
2022-08-10T04:54:05.454Z,16.10
2022-08-10T04:54:58.126Z,23.00
2022-08-10T04:55:57.359Z,14.80
2022-08-10T04:56:57.253Z,18.70
2022-08-10T04:57:57.214Z,14.40
2022-08-10T04:58:57.195Z,13.50
2022-08-10T04:59:57.153Z,12.90
2022-08-10T05:00:57.061Z,13.30
2022-08-10T05:02:28.725Z,11.80
2022-08-10T05:02:58.039Z,13.90
2022-08-10T05:04:34.354Z,12.80
2022-08-10T05:30:13.285Z,7.20
2022-08-10T05:31:12.586Z,7.30
2022-08-10T05:32:13.507Z,8.10
2022-08-10T05:33:12.591Z,7.70
2022-08-10T05:34:20.802Z,7.90
2022-08-10T05:35:13.426Z,8.60
2022-08-10T05:36:12.405Z,9.10
2022-08-10T05:38:12.734Z,7.60
2022-08-10T05:38:14.780Z,8.30
2022-08-10T05:39:12.376Z,8.20
2022-08-10T05:40:12.387Z,13.80
2022-08-10T05:41:12.316Z,10.50
2022-08-10T05:42:12.309Z,6.60
2022-08-10T05:43:12.317Z,16.10
2022-08-10T05:44:12.248Z,8.80
2022-08-10T05:45:12.357Z,5.70
2022-08-10T05:46:17.006Z,7.00
2022-08-10T05:47:14.179Z,8.00
2022-08-10T05:48:41.658Z,5.90
2022-08-10T05:49:13.189Z,7.20
2022-08-10T05:50:12.190Z,9.70
2022-08-10T05:51:12.204Z,6.40
2022-08-10T05:52:12.160Z,7.60
2022-08-10T05:54:01.649Z,15.40
2022-08-10T05:54:13.115Z,12.40
2022-08-10T05:55:12.101Z,9.50
2022-08-10T05:56:12.141Z,7.60
2022-08-10T05:57:14.107Z,8.10
2022-08-10T05:58:12.031Z,10.20
2022-08-10T05:59:12.135Z,7.50
2022-08-10T06:00:37.065Z,6.10
2022-08-10T06:01:13.056Z,5.40
2022-08-10T06:02:30.968Z,7.20
2022-08-10T06:03:12.994Z,5.20
2022-08-10T06:04:12.003Z,4.90
2022-08-10T06:05:11.964Z,5.40
2022-08-10T06:06:11.965Z,5.50
2022-08-10T06:07:12.016Z,3.70
2022-08-10T06:08:12.087Z,5.80
2022-08-10T06:09:11.935Z,3.90
2022-08-10T06:10:11.899Z,3.40
2022-08-10T06:12:26.869Z,4.30
2022-08-10T06:12:27.477Z,5.00
2022-08-10T06:13:26.888Z,5.10
2022-08-10T06:14:16.575Z,3.70
2022-08-10T06:15:21.810Z,5.30
2022-08-10T06:16:12.796Z,4.30
2022-08-10T06:17:11.788Z,4.40
2022-08-10T06:18:11.829Z,5.70
2022-08-10T06:19:11.767Z,4.10
2022-08-10T06:20:11.892Z,4.40
2022-08-10T06:21:11.987Z,3.90
2022-08-10T06:22:11.689Z,3.70
2022-08-10T06:23:11.743Z,4.00
2022-08-10T06:24:11.820Z,3.80
2022-08-10T06:25:44.363Z,4.40
2022-08-10T06:26:14.941Z,4.10
2022-08-10T06:27:11.642Z,4.40
2022-08-10T06:28:11.621Z,3.60
2022-08-10T06:29:11.633Z,4.20
2022-08-10T06:30:19.847Z,3.90
2022-08-10T06:31:12.622Z,3.70
2022-08-10T06:32:11.593Z,3.70
2022-08-10T06:33:11.584Z,4.30
2022-08-10T06:34:11.563Z,4.00
2022-08-10T06:35:11.583Z,4.20
2022-08-10T06:36:11.534Z,3.20
2022-08-10T06:37:11.518Z,3.70
2022-08-10T06:38:11.540Z,4.30
2022-08-10T06:39:32.306Z,3.30
2022-08-10T06:40:12.538Z,3.50
2022-08-10T06:41:14.722Z,3.50
2022-08-10T06:42:16.872Z,3.70
2022-08-10T06:43:12.411Z,3.60
2022-08-10T06:44:11.417Z,3.30
2022-08-10T06:45:11.429Z,3.40
2022-08-10T06:46:11.439Z,3.40
2022-08-10T06:47:12.486Z,3.40
2022-08-10T06:48:11.384Z,3.30
2022-08-10T06:49:11.346Z,3.60
2022-08-10T06:50:11.932Z,3.40
2022-08-10T06:51:11.420Z,3.20
2022-08-10T06:52:18.270Z,3.80
2022-08-10T06:53:11.357Z,3.50
2022-08-10T06:54:11.322Z,3.10
2022-08-10T06:55:11.294Z,2.80
2022-08-10T06:56:11.304Z,3.10
2022-08-10T06:57:18.867Z,2.90
2022-08-10T06:58:13.255Z,3.10
2022-08-10T06:59:14.557Z,3.40
2022-08-10T07:00:14.092Z,3.30
2022-08-10T07:01:12.314Z,2.80
2022-08-10T07:02:11.314Z,3.10
2022-08-10T07:03:11.125Z,3.60
2022-08-10T07:04:11.135Z,3.20
2022-08-10T07:05:11.149Z,3.00
2022-08-10T07:06:11.422Z,2.80
2022-08-10T07:07:11.097Z,3.00
2022-08-10T07:08:11.161Z,3.30
2022-08-10T07:09:11.058Z,3.10
2022-08-10T07:10:11.072Z,3.00
2022-08-10T07:11:12.168Z,3.20
2022-08-10T07:12:11.046Z,3.30
2022-08-10T07:13:10.989Z,2.80
2022-08-10T07:14:17.435Z,3.30
2022-08-10T07:15:14.119Z,2.80
2022-08-10T07:16:11.174Z,3.00
2022-08-10T07:17:15.708Z,3.10
2022-08-10T07:18:12.002Z,2.70
2022-08-10T07:19:10.971Z,2.80
2022-08-10T07:20:10.907Z,2.80
2022-08-10T07:21:10.972Z,3.10
2022-08-10T07:23:50.752Z,2.80
2022-08-10T07:23:55.476Z,2.70
2022-08-10T07:24:11.925Z,2.70
2022-08-10T07:25:10.833Z,2.80
2022-08-10T07:26:10.828Z,2.40
2022-08-10T07:27:11.559Z,2.70
2022-08-10T07:28:10.859Z,2.20
2022-08-10T07:29:26.621Z,2.30
2022-08-10T07:30:11.757Z,2.50
2022-08-10T07:31:54.384Z,2.10
2022-08-10T07:32:11.775Z,2.30
2022-08-10T07:33:10.997Z,2.30
2022-08-10T07:34:10.723Z,2.40
2022-08-10T07:35:10.849Z,2.50
2022-08-10T07:36:10.882Z,1.80
2022-08-10T07:37:10.895Z,2.30
2022-08-10T07:38:11.633Z,2.10
2022-08-10T07:39:10.715Z,2.30
2022-08-10T07:40:10.717Z,2.20
2022-08-10T07:41:10.612Z,2.20
2022-08-10T07:42:10.643Z,2.10
2022-08-10T07:43:10.562Z,2.10
2022-08-10T07:44:10.623Z,2.20
2022-08-10T07:45:10.613Z,1.90
2022-08-10T07:46:10.715Z,2.40
2022-08-10T07:47:10.534Z,2.30
2022-08-10T07:48:10.564Z,2.30
2022-08-10T07:49:19.017Z,2.20
2022-08-10T07:50:11.505Z,2.80
2022-08-10T07:51:10.528Z,2.10
2022-08-10T07:52:10.571Z,2.10
2022-08-10T07:53:10.486Z,2.00
2022-08-10T07:54:10.527Z,2.20
2022-08-10T07:55:10.457Z,1.90
2022-08-10T07:56:25.974Z,2.20
2022-08-10T07:57:11.398Z,2.00
2022-08-10T07:58:11.402Z,2.00
2022-08-10T07:59:10.380Z,2.40
2022-08-10T08:00:10.581Z,2.10
2022-08-10T08:01:10.344Z,2.10
2022-08-10T08:02:10.355Z,2.00
2022-08-10T08:03:10.495Z,2.10
2022-08-10T08:04:11.718Z,2.50
2022-08-10T08:05:10.419Z,2.40
2022-08-10T08:06:11.541Z,1.80
2022-08-10T08:07:10.245Z,2.00
2022-08-10T08:08:10.298Z,1.80
2022-08-10T08:09:10.234Z,2.00
2022-08-10T08:10:10.296Z,1.90
2022-08-10T08:11:10.248Z,1.90
2022-08-10T08:12:11.221Z,1.70
2022-08-10T08:13:10.167Z,1.90
2022-08-10T08:14:10.197Z,1.60
2022-08-10T08:16:15.953Z,1.80
2022-08-10T08:16:19.449Z,1.80
2022-08-10T08:17:11.169Z,1.80
2022-08-10T08:18:10.120Z,1.80
2022-08-10T08:19:27.934Z,1.50
2022-08-10T08:20:11.111Z,1.70
2022-08-10T08:24:02.675Z,2.00
2022-08-10T08:24:04.514Z,1.80
2022-08-10T08:24:06.068Z,2.00
2022-08-10T08:24:31.662Z,1.90
2022-08-10T08:25:13.006Z,2.00
2022-08-10T08:26:10.029Z,1.70
2022-08-10T08:27:10.031Z,1.60
2022-08-10T08:28:10.036Z,1.40
2022-08-10T08:29:10.024Z,1.80
2022-08-10T08:30:10.015Z,1.70
2022-08-10T08:31:09.965Z,1.60
2022-08-10T08:32:09.992Z,1.70
2022-08-10T08:33:09.937Z,1.50
2022-08-10T08:34:10.928Z,1.50
2022-08-10T08:35:09.928Z,1.70
2022-08-10T08:36:09.906Z,1.80
2022-08-10T08:37:09.922Z,1.80
2022-08-10T08:38:31.338Z,1.50
2022-08-10T08:39:11.421Z,1.70
2022-08-10T08:40:09.880Z,1.70
2022-08-10T08:41:09.832Z,1.80
2022-08-10T08:42:09.857Z,1.70
2022-08-10T08:43:09.933Z,1.70
2022-08-10T08:44:09.859Z,1.70
2022-08-10T08:45:09.802Z,1.70
2022-08-10T08:46:09.893Z,1.60
2022-08-10T08:48:01.992Z,1.80
2022-08-10T08:48:10.854Z,1.90
2022-08-10T08:49:09.766Z,1.80
2022-08-10T08:50:10.191Z,1.70
2022-08-10T08:51:09.707Z,1.50
2022-08-10T08:52:18.259Z,1.70
2022-08-10T08:53:21.396Z,1.50
2022-08-10T08:54:10.754Z,1.30
2022-08-10T08:56:03.611Z,1.80
2022-08-10T08:56:11.539Z,1.60
2022-08-10T08:57:09.618Z,1.70
2022-08-10T08:58:09.607Z,1.60
2022-08-10T08:59:09.580Z,1.80
2022-08-10T09:00:10.291Z,1.60
2022-08-10T09:01:09.703Z,1.60
2022-08-10T09:02:09.662Z,1.60
2022-08-10T09:03:09.541Z,1.90
2022-08-10T09:04:19.665Z,1.70
2022-08-10T09:05:10.532Z,1.60
2022-08-10T09:06:09.714Z,1.70
2022-08-10T09:07:59.689Z,1.30
2022-08-10T09:08:10.518Z,1.60
2022-08-10T09:09:09.685Z,1.80
2022-08-10T09:10:09.443Z,1.80
2022-08-10T09:11:09.473Z,1.70
2022-08-10T09:12:09.417Z,1.80
2022-08-10T09:13:09.455Z,1.80
2022-08-10T09:14:09.510Z,1.80
2022-08-10T09:15:09.396Z,2.10
2022-08-10T09:16:09.386Z,1.50
2022-08-10T09:17:09.380Z,1.60
2022-08-10T09:18:09.369Z,1.80
2022-08-10T09:19:09.359Z,1.70
2022-08-10T09:20:09.329Z,2.20
2022-08-10T09:21:09.395Z,1.70
2022-08-10T09:22:17.284Z,1.70
2022-08-10T09:23:10.334Z,1.40
2022-08-10T09:24:09.316Z,1.40
2022-08-10T09:25:09.313Z,1.50
2022-08-10T09:26:09.263Z,1.50
2022-08-10T09:27:09.253Z,1.60
2022-08-10T09:28:09.365Z,1.80
2022-08-10T09:29:13.220Z,1.60
2022-08-10T09:30:09.213Z,1.80
2022-08-10T09:31:25.848Z,1.20
2022-08-10T09:36:14.701Z,1.70
2022-08-10T09:36:20.389Z,1.60
2022-08-10T09:36:20.908Z,1.50
2022-08-10T09:36:26.171Z,1.70
2022-08-10T09:36:26.577Z,1.60
2022-08-10T09:37:10.189Z,1.70
2022-08-10T09:38:09.148Z,2.30
2022-08-10T09:39:09.228Z,1.60
2022-08-10T09:41:01.267Z,1.30
2022-08-10T09:41:13.322Z,1.50
2022-08-10T09:42:14.828Z,2.00
2022-08-10T09:43:25.153Z,1.80
2022-08-10T09:44:10.436Z,1.50
2022-08-10T10:10:05.461Z,1.40
2022-08-10T10:10:55.262Z,1.60
2022-08-10T10:11:54.706Z,1.40
2022-08-10T10:14:41.220Z,1.50
2022-08-10T10:15:41.507Z,1.60
2022-08-10T10:16:40.353Z,1.40
2022-08-10T10:17:40.382Z,1.40
2022-08-10T10:18:40.396Z,1.30
2022-08-10T10:19:41.086Z,1.70
2022-08-10T10:20:40.317Z,1.40
2022-08-10T10:21:54.362Z,1.60
2022-08-10T10:22:41.274Z,1.30
2022-08-10T10:23:40.336Z,3.00
2022-08-10T10:24:40.234Z,1.50
2022-08-10T10:25:51.245Z,1.60
2022-08-10T10:26:41.407Z,1.70
2022-08-10T10:27:40.215Z,1.80
2022-08-10T10:29:11.783Z,1.60
2022-08-10T10:29:58.614Z,1.50
2022-08-10T10:30:41.176Z,2.30
2022-08-10T10:31:40.178Z,1.80
2022-08-10T11:18:56.471Z,1.90
2022-08-10T11:20:01.888Z,1.70
2022-08-10T11:30:48.248Z,1.60
2022-08-10T11:31:47.131Z,1.60
2022-08-10T11:32:46.180Z,1.70
2022-08-10T11:34:11.749Z,1.70
2022-08-10T11:35:11.361Z,1.50
2022-08-10T11:35:48.447Z,1.60
2022-08-10T11:36:46.168Z,1.40
2022-08-10T11:38:34.434Z,1.50
2022-08-10T11:39:13.093Z,1.40
2022-08-10T11:39:48.700Z,1.90
2022-08-10T12:04:03.766Z,1.40
2022-08-10T12:05:05.658Z,1.40
2022-08-10T12:17:27.379Z,1.60
2022-08-10T12:20:27.308Z,1.50
2022-08-10T12:21:26.069Z,1.30
2022-08-10T12:22:25.929Z,1.60
2022-08-10T12:23:26.813Z,1.30
2022-08-10T12:28:50.047Z,1.50
2022-08-10T12:29:43.398Z,1.70
2022-08-10T12:30:40.201Z,1.60
2022-08-10T12:31:40.240Z,1.40
2022-08-10T12:32:40.078Z,1.60
2022-08-10T12:34:02.154Z,1.40
2022-08-10T12:34:41.173Z,1.40
2022-08-10T12:35:41.934Z,1.40
2022-08-10T12:36:42.292Z,1.50
2022-08-10T12:37:40.063Z,1.70
2022-08-10T12:53:15.724Z,1.50
2022-08-10T12:54:13.536Z,1.50
2022-08-10T12:55:13.406Z,1.20
2022-08-10T12:56:13.266Z,1.60
2022-08-10T12:57:13.420Z,1.30
2022-08-10T12:58:57.374Z,1.40
2022-08-10T12:59:14.283Z,1.40
2022-08-10T13:00:17.368Z,1.50
2022-08-10T13:01:17.480Z,1.60
2022-08-10T13:02:13.204Z,1.40
2022-08-10T13:03:13.804Z,1.50
2022-08-10T13:18:28.034Z,1.40
2022-08-10T13:19:26.918Z,1.40
2022-08-10T13:20:27.418Z,1.60
2022-08-10T13:21:26.421Z,1.30
2022-08-10T13:22:26.387Z,1.40
2022-08-10T13:23:26.364Z,1.20
2022-08-10T13:24:26.352Z,1.30
2022-08-10T13:25:26.343Z,1.30
2022-08-10T13:26:26.543Z,1.30
2022-08-10T13:28:00.424Z,1.20
2022-08-10T13:28:36.200Z,1.30
2022-08-10T13:29:27.284Z,1.40
2022-08-10T13:30:33.408Z,1.30
2022-08-10T13:31:43.799Z,1.30
2022-08-10T13:32:27.388Z,1.30
2022-08-10T13:34:39.683Z,1.30
2022-08-10T13:34:42.610Z,1.40
2022-08-10T13:35:27.222Z,1.30
2022-08-10T13:36:26.250Z,1.80
2022-08-10T13:37:26.964Z,1.50
2022-08-10T13:48:13.429Z,1.70
2022-08-10T13:49:13.468Z,1.60
2022-08-10T13:50:13.321Z,1.40
2022-08-10T13:51:13.808Z,1.60
2022-08-10T13:52:12.877Z,1.40
2022-08-10T13:53:15.469Z,1.40
2022-08-10T13:54:12.856Z,1.50
2022-08-10T13:55:12.842Z,1.40
2022-08-10T13:58:13.497Z,1.50
2022-08-10T13:59:16.162Z,1.40
2022-08-10T14:00:37.126Z,1.40
2022-08-10T14:01:14.801Z,1.50
2022-08-10T14:02:13.102Z,1.60
2022-08-10T14:03:13.091Z,1.30
2022-08-10T14:04:13.094Z,1.50
2022-08-10T14:05:13.090Z,1.40
2022-08-10T14:06:13.059Z,1.20
2022-08-10T14:07:13.085Z,1.70
2022-08-10T14:08:13.032Z,1.50
2022-08-10T14:11:08.643Z,1.50
2022-08-10T14:11:50.047Z,1.60
2022-08-10T14:15:14.286Z,1.50
2022-08-10T14:16:15.061Z,1.50
2022-08-10T14:17:14.596Z,1.40
2022-08-10T14:18:13.852Z,1.60
2022-08-10T14:19:13.826Z,1.50
2022-08-10T14:20:17.946Z,1.40
2022-08-10T14:21:14.818Z,1.40
2022-08-10T14:22:14.052Z,1.60
2022-08-10T14:23:13.807Z,1.30
2022-08-10T14:24:13.790Z,1.40
2022-08-10T14:25:13.740Z,1.50
2022-08-10T14:26:16.037Z,1.60
2022-08-10T14:27:13.776Z,1.70
2022-08-10T14:28:13.778Z,1.50
2022-08-10T14:29:19.074Z,1.50
2022-08-10T14:30:14.693Z,1.60
2022-08-10T14:31:15.147Z,1.30
2022-08-10T14:32:13.709Z,1.50
2022-08-10T14:33:13.773Z,1.40
2022-08-10T14:34:14.025Z,1.50
2022-08-10T14:36:18.725Z,1.70
2022-08-10T14:36:23.157Z,1.60
2022-08-10T14:37:14.772Z,1.40
2022-08-10T14:38:25.801Z,1.60
2022-08-10T14:39:23.423Z,1.40
2022-08-10T14:40:13.992Z,1.20
2022-08-10T14:41:13.818Z,1.20
2022-08-10T14:42:25.582Z,2.00
2022-08-10T14:43:16.238Z,1.40
2022-08-10T14:44:15.605Z,1.40
2022-08-10T14:45:13.498Z,1.40
2022-08-10T14:46:13.497Z,1.60
2022-08-10T14:47:53.087Z,1.40
2022-08-10T14:48:15.036Z,1.90
2022-08-10T14:49:26.132Z,1.50
2022-08-10T14:50:14.516Z,1.30
2022-08-10T14:51:15.697Z,1.70
2022-08-10T14:52:13.750Z,1.60
2022-08-10T14:53:13.527Z,1.50
2022-08-10T14:54:13.476Z,1.40
2022-08-10T14:55:19.082Z,1.20
2022-08-10T14:56:14.558Z,1.20
2022-08-10T15:00:32.981Z,1.30
2022-08-10T15:01:25.382Z,1.30
2022-08-10T15:02:40.473Z,1.20
2022-08-10T15:03:59.379Z,1.40
2022-08-10T15:04:24.958Z,1.20
2022-08-10T15:05:23.869Z,1.40
2022-08-10T15:06:31.022Z,1.50
2022-08-10T15:07:24.885Z,1.50
2022-08-10T15:08:23.842Z,1.40
2022-08-10T15:09:23.819Z,1.60
2022-08-10T15:10:23.851Z,1.20
2022-08-10T15:12:15.252Z,1.40
2022-08-10T15:12:25.038Z,1.30
2022-08-10T15:13:33.692Z,1.40
2022-08-10T15:14:42.759Z,1.30
2022-08-10T15:15:27.923Z,1.50
2022-08-10T15:16:24.041Z,1.20
2022-08-10T15:17:23.839Z,1.20
2022-08-10T15:18:26.481Z,1.30
2022-08-10T15:25:57.631Z,1.10
2022-08-10T15:26:51.385Z,1.10
2022-08-10T15:27:55.079Z,1.30
2022-08-10T15:29:22.271Z,1.30
2022-08-10T15:29:57.759Z,1.50
2022-08-10T15:30:43.789Z,1.30
2022-08-10T15:31:45.625Z,1.50
2022-08-10T15:32:43.756Z,1.30
2022-08-10T15:34:03.496Z,1.50
2022-08-10T15:34:43.755Z,1.10
2022-08-10T15:35:42.706Z,1.40
2022-08-10T15:36:42.731Z,1.40
2022-08-10T15:37:42.699Z,1.40
2022-08-10T15:38:44.462Z,1.40
2022-08-10T15:40:20.715Z,1.30
2022-08-10T15:40:43.671Z,1.30
2022-08-10T15:41:58.801Z,1.50
2022-08-10T15:42:49.388Z,1.20
2022-08-10T15:43:44.896Z,1.70
2022-08-10T15:44:43.295Z,1.70
2022-08-10T15:45:42.592Z,1.30
2022-08-10T15:46:42.630Z,1.40
2022-08-10T15:47:45.662Z,1.20
2022-08-10T15:48:42.612Z,1.40
2022-08-10T15:49:45.237Z,1.60
2022-08-10T15:50:42.562Z,1.30
2022-08-10T15:51:53.678Z,1.40
2022-08-10T15:53:00.844Z,1.70
2022-08-10T15:53:49.879Z,1.40
2022-08-10T15:54:43.507Z,1.40
2022-08-10T15:55:45.590Z,1.40
2022-08-10T15:56:42.452Z,1.50
2022-08-10T15:57:42.449Z,1.60
2022-08-10T15:58:42.408Z,1.40
2022-08-10T15:59:42.435Z,1.40
2022-08-10T16:00:42.518Z,1.40
2022-08-10T16:02:04.061Z,1.20
2022-08-10T16:02:44.068Z,1.40
2022-08-10T16:03:42.386Z,1.50
2022-08-10T16:04:42.440Z,1.50
2022-08-10T16:06:02.326Z,1.50
2022-08-10T16:06:43.444Z,1.50
2022-08-10T16:07:46.271Z,1.40
2022-08-10T16:08:56.491Z,1.70
2022-08-10T16:10:22.741Z,1.60
2022-08-10T16:10:43.261Z,1.40
2022-08-10T16:11:43.273Z,1.70
2022-08-10T16:12:42.255Z,1.30
2022-08-10T16:14:00.849Z,1.20
2022-08-10T16:14:43.244Z,1.30
2022-08-10T16:15:42.215Z,1.30
2022-08-10T16:16:42.175Z,1.40
2022-08-10T16:17:55.083Z,1.30
2022-08-10T16:18:43.155Z,1.70
2022-08-10T16:19:42.137Z,2.20
2022-08-10T16:20:53.479Z,1.70
2022-08-10T16:21:43.140Z,1.70
2022-08-10T16:22:42.097Z,1.30
2022-08-10T16:23:42.117Z,1.60
2022-08-10T16:24:42.164Z,1.10
2022-08-10T16:25:48.380Z,1.50
2022-08-10T16:26:43.151Z,1.50
2022-08-10T16:27:42.060Z,1.50
2022-08-10T16:28:42.062Z,1.50
2022-08-10T16:29:55.732Z,1.60
2022-08-10T16:30:43.006Z,1.30
2022-08-10T16:31:41.974Z,1.60
2022-08-10T16:32:41.982Z,1.30
2022-08-10T16:33:52.839Z,1.60
2022-08-10T16:34:42.962Z,1.60
2022-08-10T16:35:42.100Z,1.30
2022-08-10T16:36:41.923Z,1.80
2022-08-10T16:37:56.722Z,1.30
2022-08-10T16:38:42.878Z,1.50
2022-08-10T16:40:00.410Z,1.30
2022-08-10T16:40:42.921Z,1.90
2022-08-10T16:42:04.535Z,1.50
2022-08-10T16:42:45.030Z,1.50
2022-08-10T16:48:06.569Z,5.20
2022-08-10T16:49:17.010Z,3.80
2022-08-10T16:50:05.243Z,1.70
2022-08-10T16:51:05.271Z,1.60
2022-08-10T16:52:05.215Z,1.50
2022-08-10T16:53:05.225Z,1.20
2022-08-10T16:54:05.177Z,1.50
2022-08-10T16:55:16.568Z,1.40
2022-08-10T16:56:06.185Z,1.60
2022-08-10T16:57:05.135Z,1.40
2022-08-10T16:58:05.103Z,1.40
2022-08-10T16:59:05.097Z,1.40
2022-08-10T17:00:05.097Z,1.70
2022-08-10T17:01:05.292Z,1.50
2022-08-10T17:02:05.078Z,1.40
2022-08-10T17:03:22.607Z,1.50
2022-08-10T17:04:09.931Z,1.30
2022-08-10T17:05:05.028Z,1.30
2022-08-10T17:06:15.446Z,1.50
2022-08-10T17:26:36.214Z,1.40
2022-08-10T17:28:05.594Z,1.40
2022-08-10T17:28:34.528Z,1.40
2022-08-10T17:29:58.200Z,1.50
2022-08-10T17:30:35.316Z,1.50
2022-08-10T17:31:53.618Z,1.10
2022-08-10T17:32:32.452Z,1.30
2022-08-10T17:45:48.461Z,1.20
2022-08-10T17:46:43.321Z,1.20
2022-08-10T17:47:42.083Z,1.50
2022-08-10T17:48:42.177Z,1.30
2022-08-10T17:49:42.091Z,1.30
2022-08-10T17:50:42.250Z,1.60
2022-08-10T17:51:42.087Z,1.40
2022-08-10T17:54:11.284Z,1.60
2022-08-10T17:55:10.719Z,1.70
2022-08-10T17:56:10.093Z,1.70
2022-08-10T17:57:09.955Z,1.50
2022-08-10T17:58:09.986Z,1.60
2022-08-10T17:59:15.190Z,1.40
2022-08-10T18:00:10.918Z,1.40
2022-08-10T18:01:38.443Z,1.50
2022-08-10T18:02:10.948Z,1.50
2022-08-10T18:03:09.870Z,1.60
2022-08-10T18:04:10.869Z,1.70
2022-08-10T18:05:09.889Z,1.80
2022-08-10T18:06:09.870Z,1.50
2022-08-10T18:07:09.838Z,1.60
2022-08-10T18:08:09.803Z,1.70
2022-08-10T18:09:09.794Z,1.60
2022-08-10T18:10:09.810Z,1.70
2022-08-10T18:11:09.839Z,1.70
2022-08-10T18:12:10.138Z,1.80
2022-08-10T18:13:09.797Z,1.70
2022-08-10T18:14:09.732Z,1.50
2022-08-10T18:15:11.991Z,1.40
2022-08-10T18:16:09.701Z,1.60
2022-08-10T18:17:09.738Z,1.60
2022-08-10T18:18:09.672Z,1.60
2022-08-10T18:19:09.686Z,1.60
2022-08-10T18:20:09.653Z,1.60
2022-08-10T18:24:21.734Z,1.50
2022-08-10T18:28:38.779Z,1.70
2022-08-10T18:29:32.894Z,1.60
2022-08-10T18:30:35.916Z,1.70
2022-08-10T18:31:32.810Z,1.60
2022-08-10T18:32:31.745Z,1.70
2022-08-10T18:33:31.769Z,1.70
2022-08-10T18:34:31.746Z,1.90
2022-08-10T18:35:34.426Z,1.70
2022-08-10T18:36:31.711Z,1.80
2022-08-10T18:37:31.698Z,1.80
2022-08-10T18:38:31.647Z,1.50
2022-08-10T18:39:31.853Z,1.70
2022-08-10T18:40:36.086Z,1.60
2022-08-10T18:41:32.664Z,1.80
2022-08-10T18:42:31.627Z,1.70
2022-08-10T18:44:06.484Z,1.80
2022-08-10T18:44:32.616Z,1.70
2022-08-10T18:45:31.560Z,2.00
2022-08-10T18:46:31.539Z,2.10
2022-08-10T18:47:31.540Z,1.80
2022-08-10T18:48:31.517Z,2.20
2022-08-10T18:49:31.529Z,2.00
2022-08-10T18:50:31.500Z,1.90
2022-08-10T18:51:35.824Z,1.60
2022-08-10T18:52:32.514Z,1.70
2022-08-10T18:53:31.549Z,1.50
2022-08-10T18:54:44.303Z,1.90
2022-08-10T18:55:35.498Z,1.60
2022-08-10T18:56:32.393Z,2.00
2022-08-10T18:57:31.431Z,1.80
2022-08-10T18:58:31.672Z,1.70
2022-08-10T18:59:31.985Z,1.80
2022-08-10T19:00:33.701Z,1.80
2022-08-10T19:01:31.426Z,1.80
2022-08-10T19:07:38.093Z,2.10
2022-08-10T19:08:49.496Z,2.20
2022-08-10T19:27:36.199Z,1.90
2022-08-10T19:28:35.110Z,2.00
2022-08-10T19:30:09.708Z,2.10
2022-08-10T19:30:34.951Z,1.80
2022-08-10T19:31:43.899Z,2.10
2022-08-10T19:32:34.890Z,2.00
2022-08-10T19:33:33.926Z,1.70
2022-08-10T19:34:33.896Z,1.60
2022-08-10T19:36:03.538Z,2.00
2022-08-10T19:36:34.980Z,2.20
2022-08-10T19:38:00.599Z,2.20
2022-08-10T19:38:35.919Z,1.70
2022-08-10T19:39:34.990Z,2.10
2022-08-10T19:40:43.432Z,2.00
2022-08-10T19:41:44.837Z,2.20
2022-08-10T19:57:39.779Z,2.10
2022-08-10T20:03:23.505Z,1.90
2022-08-10T20:04:09.966Z,1.90
2022-08-10T20:07:38.436Z,2.30
2022-08-10T20:11:44.253Z,1.90
2022-08-10T20:12:39.183Z,1.90
2022-08-10T20:13:37.905Z,1.90
2022-08-10T20:14:37.933Z,1.90
2022-08-10T20:15:42.142Z,1.90
2022-08-10T20:16:37.715Z,1.80
2022-08-10T20:17:51.337Z,2.30
2022-08-10T20:18:38.688Z,2.00
2022-08-10T20:19:53.059Z,2.00
2022-08-10T20:20:38.899Z,2.00
2022-08-10T20:21:37.658Z,1.80
2022-08-10T20:22:37.679Z,1.90
2022-08-10T20:23:37.611Z,2.20
2022-08-10T20:24:37.693Z,2.40
2022-08-10T20:28:05.102Z,2.30
2022-08-10T20:29:04.675Z,2.40
2022-08-10T20:30:05.020Z,2.20
2022-08-10T20:31:04.599Z,2.20
2022-08-10T20:32:04.492Z,2.10
2022-08-10T20:33:04.488Z,1.90
2022-08-10T20:34:04.473Z,2.10
2022-08-10T20:35:04.525Z,1.90
2022-08-10T20:36:04.424Z,2.20
2022-08-10T20:37:04.427Z,2.40
2022-08-10T20:38:05.181Z,2.20
2022-08-10T20:39:04.391Z,2.20
2022-08-10T20:40:04.374Z,2.00
2022-08-10T20:41:04.377Z,2.00
2022-08-10T20:42:04.381Z,2.20
2022-08-10T20:43:04.361Z,2.10
2022-08-10T20:44:04.346Z,2.60
2022-08-10T20:45:04.395Z,2.00
2022-08-10T20:46:11.405Z,2.10
2022-08-10T20:47:05.286Z,2.30
2022-08-10T20:48:04.269Z,2.20
2022-08-10T20:55:56.471Z,2.30
2022-08-10T20:56:22.973Z,2.20
2022-08-10T21:52:16.727Z,2.80
2022-08-10T22:03:17.310Z,3.30
2022-08-10T23:15:28.655Z,5.00
2022-08-10T23:31:06.203Z,5.70
